DME weather

Domodedovo International Airport
Moscow, Moscow Oblast, Russia

Public forecast

Using degrees Celsius for public forecast. Weather courtesy of forecast.io.

METAR (pilot weather report)

Retrieved 2019/04/26 05:30 UTC (0 seconds ago):

UUDD 260530Z 05003MPS 030V090 CAVOK 16/02 Q1021 R88/CLRD95 NOSIG

TAF (pilot weather forecast)

Retrieved 2019/04/26 03:21 UTC (2 hours ago):

TAF UUDD 260156Z 2603/2709 08003MPS 9999 SCT040 TX23/2612Z TN08/2703Z